Terminal Aerodrome Forecast
Issued by NWS Knoxville/Tri Cities, TN

Home | Current Version | Previous Version | Text Only | Print | Product List | Glossary On
Versions: 1 2 3 4 5 6 7 8 9 10 11 12 13 14 15 16
000
FTUS44 KMRX 281318 AAB
TAFCHA
TAF AMD
KCHA 281318Z 2813/0112 18005KT 1 1/2SM BR OVC009
     FM281430 14003KT 4SM BR VCSH OVC010
     FM281700 18007KT 4SM -SHRA OVC015
     FM010000 18005KT 2SM BR OVC007
     FM010600 19003KT 6SM BR OVC015=

USA.gov is the U.S. government's official web portal to all federal, state and local government web resources and services.